Time;durP1;ratioP1;P1;durP2;ratioP2;P2;SDS_P1;SDS_P2;PMS_P1;PMS_P2;Temp;Humidity;BMP_temperature;BMP_pressure;BME280_temperature;BME280_humidity;BME280_pressure;Samples;Min_cycle;Max_cycle;Signal;HPM_P1;HPM_P2
2023/06/23 00:00:38;;;;;;;;;16.75;14.50;28.60;55.70;;;;;;111216;1240;49130;-63
2023/06/23 00:03:25;;;;;;;;;15.25;13.75;28.60;55.90;;;;;;111228;1243;49913;-62
2023/06/23 00:05:52;;;;;;;;;16.00;15.00;28.50;55.60;;;;;;111303;1238;53869;-63
2023/06/23 00:08:19;;;;;;;;;15.00;12.50;28.50;55.60;;;;;;111285;1238;44668;-62
2023/06/23 00:10:48;;;;;;;;;16.00;15.00;28.60;55.80;;;;;;111384;1239;48758;-62
2023/06/23 00:13:15;;;;;;;;;17.00;14.00;28.50;55.50;;;;;;111273;1238;49361;-62
2023/06/23 00:15:42;;;;;;;;;15.25;13.50;28.50;55.60;;;;;;111246;1240;53606;-61
2023/06/23 00:18:10;;;;;;;;;14.00;13.00;28.50;55.60;;;;;;111239;1243;45251;-62
2023/06/23 00:20:37;;;;;;;;;15.50;14.25;28.50;55.60;;;;;;111185;1243;49156;-62
2023/06/23 00:23:03;;;;;;;;;15.25;13.25;28.50;55.60;;;;;;111160;1244;49528;-63
2023/06/23 00:25:30;;;;;;;;;17.00;16.00;28.50;55.60;;;;;;111212;1244;53476;-64
2023/06/23 00:27:57;;;;;;;;;15.33;14.00;28.50;55.80;;;;;;111216;1240;44906;-63
2023/06/23 00:30:24;;;;;;;;;14.50;13.75;28.50;55.60;;;;;;111193;1243;49558;-62
2023/06/23 00:32:51;;;;;;;;;14.00;13.00;28.50;55.60;;;;;;111292;1243;49065;-62
2023/06/23 00:35:18;;;;;;;;;15.00;14.00;28.50;55.60;;;;;;111200;1238;54338;-62
2023/06/23 00:37:45;;;;;;;;;19.00;17.33;28.50;55.70;;;;;;111213;1238;45023;-63
2023/06/23 00:40:12;;;;;;;;;14.75;13.75;28.40;55.60;;;;;;111282;1243;49762;-62
2023/06/23 00:42:47;;;;;;;;;13.67;11.67;28.50;55.60;;;;;;111238;1240;49871;-61
2023/06/23 00:45:14;;;;;;;;;16.67;14.67;28.50;55.70;;;;;;111287;1238;53678;-62
2023/06/23 00:47:42;;;;;;;;;14.25;13.75;28.40;55.80;;;;;;111170;1244;44568;-61
2023/06/23 00:50:12;;;;;;;;;13.25;12.75;28.40;55.60;;;;;;111274;1243;50315;-64
2023/06/23 00:52:39;;;;;;;;;16.00;12.75;28.40;55.60;;;;;;111293;1244;50038;-65
2023/06/23 00:55:07;;;;;;;;;18.00;15.00;28.40;55.60;;;;;;111312;1244;54055;-61
2023/06/23 00:57:34;;;;;;;;;15.00;13.75;28.40;55.60;;;;;;111214;1240;45568;-62
2023/06/23 01:00:05;;;;;;;;;13.00;12.00;28.40;55.60;;;;;;111197;1243;49694;-62
2023/06/23 01:02:32;;;;;;;;;14.50;12.00;28.40;55.60;;;;;;111203;1243;50158;-62
2023/06/23 01:05:00;;;;;;;;;15.25;13.75;28.40;55.60;;;;;;111238;1240;54303;-64
2023/06/23 01:07:57;;;;;;;;;17.50;14.50;28.40;55.60;;;;;;111234;1239;44885;-63
2023/06/23 01:10:56;;;;;;;;;14.00;13.00;28.40;55.60;;;;;;111071;1243;49828;-62
2023/06/23 01:13:40;;;;;;;;;15.50;13.75;28.40;55.60;;;;;;111150;1244;49885;-63
2023/06/23 01:16:13;;;;;;;;;15.00;14.00;28.40;55.50;;;;;;111306;1240;53854;-64
2023/06/23 01:19:09;;;;;;;;;15.75;14.00;28.40;55.50;;;;;;111251;1238;44873;-64
2023/06/23 01:22:06;;;;;;;;;15.00;14.50;28.40;55.50;;;;;;111110;1241;49909;-63
2023/06/23 01:24:52;;;;;;;;;16.00;14.00;28.40;55.50;;;;;;111036;1243;48966;-62
2023/06/23 01:27:47;;;;;;;;;14.33;13.33;28.40;55.40;;;;;;111232;1240;54849;-63
2023/06/23 01:30:15;;;;;;;;;16.25;14.00;28.40;55.40;;;;;;111326;1243;44624;-62
2023/06/23 01:32:47;;;;;;;;;14.00;13.00;28.40;55.40;;;;;;111141;1240;49330;-62
2023/06/23 01:35:21;;;;;;;;;13.00;13.00;28.40;55.40;;;;;;111191;1240;50008;-62
2023/06/23 01:37:51;;;;;;;;;15.00;13.50;28.30;55.50;;;;;;111319;1243;53424;-61
2023/06/23 01:40:22;;;;;;;;;17.00;13.00;28.30;56.00;;;;;;111219;1243;44633;-62
2023/06/23 01:42:56;;;;;;;;;16.75;16.00;28.30;55.50;;;;;;111205;1242;50448;-62
2023/06/23 01:45:27;;;;;;;;;14.00;13.00;28.40;55.40;;;;;;111234;1243;49779;-62
2023/06/23 01:47:55;;;;;;;;;14.25;13.25;28.40;55.50;;;;;;111236;1243;55021;-61
2023/06/23 01:50:23;;;;;;;;;14.00;12.50;28.40;55.40;;;;;;111196;1241;45248;-63
2023/06/23 01:52:51;;;;;;;;;18.00;14.75;28.30;55.30;;;;;;111194;1240;49291;-63
2023/06/23 01:55:19;;;;;;;;;14.00;13.00;28.30;54.90;;;;;;111173;1242;49575;-62
2023/06/23 01:57:47;;;;;;;;;14.50;13.25;28.30;55.40;;;;;;111205;1240;54098;-62
2023/06/23 02:00:18;;;;;;;;;16.00;14.33;28.30;55.40;;;;;;111183;1240;44929;-61
2023/06/23 02:02:47;;;;;;;;;12.50;12.00;28.30;55.40;;;;;;111272;1240;50166;-62
2023/06/23 02:05:16;;;;;;;;;17.00;13.25;28.30;55.40;;;;;;111303;1239;50634;-62
2023/06/23 02:07:47;;;;;;;;;16.33;14.00;28.30;55.40;;;;;;111194;1238;54978;-63
2023/06/23 02:10:16;;;;;;;;;17.00;13.75;28.20;55.30;;;;;;111196;1243;45590;-63
2023/06/23 02:12:44;;;;;;;;;14.00;13.25;28.20;55.30;;;;;;111175;1240;49786;-62
2023/06/23 02:15:13;;;;;;;;;14.00;13.00;28.20;55.30;;;;;;111188;1238;49516;-62
2023/06/23 02:17:41;;;;;;;;;12.25;11.25;28.20;55.40;;;;;;111252;1240;55449;-63
2023/06/23 02:20:16;;;;;;;;;13.75;12.75;28.30;55.40;;;;;;111185;1238;44824;-63
2023/06/23 02:22:49;;;;;;;;;15.25;13.25;28.20;55.50;;;;;;111212;1241;49089;-63
2023/06/23 02:25:17;;;;;;;;;14.00;13.00;28.20;55.60;;;;;;111279;1243;50316;-63
2023/06/23 02:27:44;;;;;;;;;14.33;13.33;28.20;55.40;;;;;;111210;1243;54192;-63
2023/06/23 02:30:12;;;;;;;;;14.75;14.00;28.20;55.30;;;;;;111189;1240;44634;-62
2023/06/23 02:32:39;;;;;;;;;13.25;12.25;28.20;55.30;;;;;;111225;1244;49757;-62
2023/06/23 02:35:08;;;;;;;;;15.75;13.25;28.20;55.50;;;;;;111234;1243;48911;-63
2023/06/23 02:37:37;;;;;;;;;12.50;12.00;28.20;55.40;;;;;;111203;1238;53176;-61
2023/06/23 02:40:09;;;;;;;;;15.00;14.50;28.20;55.50;;;;;;111190;1241;45100;-63
2023/06/23 02:42:41;;;;;;;;;12.25;10.75;28.20;55.30;;;;;;111252;1239;49511;-62
2023/06/23 02:45:13;;;;;;;;;13.25;13.00;28.10;55.30;;;;;;111225;1238;50106;-62
2023/06/23 02:47:41;;;;;;;;;15.00;14.00;28.20;55.40;;;;;;111240;1240;53980;-62
2023/06/23 02:50:11;;;;;;;;;15.75;13.00;28.20;55.30;;;;;;111212;1243;44581;-64
2023/06/23 02:52:44;;;;;;;;;17.50;15.25;28.10;55.30;;;;;;111209;1243;49192;-62
2023/06/23 02:55:12;;;;;;;;;13.00;12.25;28.10;55.30;;;;;;111258;1240;50703;-63
2023/06/23 02:57:40;;;;;;;;;16.50;12.00;28.10;55.30;;;;;;111188;1238;54703;-63
2023/06/23 03:00:17;;;;;;;;;14.00;13.00;28.20;55.80;;;;;;111234;1244;45032;-63
2023/06/23 03:02:46;;;;;;;;;13.50;12.50;28.20;55.50;;;;;;111197;1243;50266;-62
2023/06/23 03:05:13;;;;;;;;;13.00;12.00;28.10;55.20;;;;;;111146;1244;49029;-63
2023/06/23 03:07:40;;;;;;;;;14.00;11.33;28.10;55.40;;;;;;111234;1239;55092;-62
2023/06/23 03:10:08;;;;;;;;;16.00;13.00;28.10;55.20;;;;;;111283;1238;45057;-61
2023/06/23 03:12:35;;;;;;;;;16.25;14.25;28.10;55.40;;;;;;111236;1239;49364;-65
2023/06/23 03:15:03;;;;;;;;;12.00;11.75;28.10;55.40;;;;;;111239;1240;49802;-62
2023/06/23 03:17:31;;;;;;;;;13.25;12.75;28.10;55.20;;;;;;111226;1243;54011;-63
2023/06/23 03:20:33;;;;;;;;;13.75;13.00;28.10;55.20;;;;;;111182;1244;44589;-63
2023/06/23 03:23:09;;;;;;;;;14.00;12.00;28.10;55.10;;;;;;111087;1238;49838;-63
2023/06/23 03:25:37;;;;;;;;;12.25;12.00;28.10;55.10;;;;;;111310;1241;49736;-63
2023/06/23 03:28:08;;;;;;;;;13.25;12.75;28.10;55.20;;;;;;111097;1244;54685;-62
2023/06/23 03:30:39;;;;;;;;;12.25;11.25;28.10;54.90;;;;;;111217;1244;44376;-63
2023/06/23 03:33:22;;;;;;;;;16.00;14.00;28.10;54.90;;;;;;111195;1244;48942;-62
2023/06/23 03:35:50;;;;;;;;;15.75;14.00;28.10;54.90;;;;;;111257;1240;50240;-62
2023/06/23 03:38:19;;;;;;;;;13.33;11.67;28.10;54.80;;;;;;111176;1244;53788;-62
2023/06/23 03:41:01;;;;;;;;;13.75;12.25;28.10;54.80;;;;;;111216;1239;44999;-63
2023/06/23 03:43:32;;;;;;;;;15.25;12.00;28.10;54.80;;;;;;111169;1242;49130;-62
2023/06/23 03:46:12;;;;;;;;;13.33;13.00;28.10;54.80;;;;;;111261;1241;49214;-62
2023/06/23 03:48:41;;;;;;;;;13.25;12.00;28.10;54.80;;;;;;111169;1243;54289;-63
2023/06/23 03:51:10;;;;;;;;;14.67;14.00;28.10;54.70;;;;;;111223;1242;44292;-63
2023/06/23 03:53:37;;;;;;;;;14.75;13.75;28.10;54.70;;;;;;111210;1244;48982;-61
2023/06/23 03:56:06;;;;;;;;;15.00;12.00;28.10;54.80;;;;;;111238;1248;50310;-63
2023/06/23 03:58:34;;;;;;;;;14.50;13.50;28.10;55.20;;;;;;111206;1244;54033;-62
2023/06/23 04:01:02;;;;;;;;;13.25;12.50;28.10;54.80;;;;;;111129;1244;44569;-62
2023/06/23 04:03:30;;;;;;;;;12.67;11.00;28.10;55.00;;;;;;111154;1239;49497;-63
2023/06/23 04:05:58;;;;;;;;;13.50;12.50;28.00;54.80;;;;;;111233;1240;50538;-62
2023/06/23 04:08:29;;;;;;;;;11.00;10.00;28.10;54.80;;;;;;111239;1240;53891;-62
2023/06/23 04:10:57;;;;;;;;;15.75;12.00;28.10;55.00;;;;;;111314;1239;44786;-62
2023/06/23 04:13:26;;;;;;;;;17.00;13.75;28.00;54.80;;;;;;111265;1238;49073;-62
2023/06/23 04:15:56;;;;;;;;;15.00;12.00;28.00;55.00;;;;;;111390;1243;49161;-62
2023/06/23 04:18:24;;;;;;;;;15.50;13.25;28.00;55.00;;;;;;111253;1244;53714;-61
2023/06/23 04:20:54;;;;;;;;;13.67;12.67;28.00;55.00;;;;;;111262;1243;44421;-62
2023/06/23 04:23:22;;;;;;;;;15.00;13.25;28.00;54.80;;;;;;111288;1243;49190;-63
2023/06/23 04:25:50;;;;;;;;;13.75;12.00;28.00;54.80;;;;;;111323;1240;49543;-62
2023/06/23 04:28:19;;;;;;;;;13.75;12.25;28.00;54.80;;;;;;111221;1240;54596;-62
2023/06/23 04:30:47;;;;;;;;;14.25;13.00;28.00;54.80;;;;;;111244;1243;45121;-62
2023/06/23 04:33:13;;;;;;;;;15.50;14.00;28.00;54.80;;;;;;111188;1240;49539;-62
2023/06/23 04:35:40;;;;;;;;;12.50;12.00;28.00;54.80;;;;;;111160;1243;49425;-62
2023/06/23 04:38:13;;;;;;;;;13.25;12.00;27.90;55.00;;;;;;111201;1243;54118;-63
2023/06/23 04:40:54;;;;;;;;;14.00;13.00;28.00;54.90;;;;;;111188;1243;44944;-62
2023/06/23 04:43:38;;;;;;;;;13.33;12.33;28.00;54.90;;;;;;111216;1243;49777;-62
2023/06/23 04:46:19;;;;;;;;;12.00;11.67;28.00;55.10;;;;;;111231;1244;49717;-62
2023/06/23 04:48:50;;;;;;;;;12.75;11.25;28.00;54.90;;;;;;111214;1243;53247;-62
2023/06/23 04:51:19;;;;;;;;;11.00;11.00;28.00;55.10;;;;;;111253;1238;44827;-62
2023/06/23 04:53:49;;;;;;;;;12.00;11.25;28.00;55.00;;;;;;111243;1244;50258;-61
2023/06/23 04:56:20;;;;;;;;;14.75;13.75;28.00;54.80;;;;;;111286;1239;49559;-63
2023/06/23 04:58:53;;;;;;;;;15.25;14.00;28.00;54.80;;;;;;111251;1243;54680;-63
2023/06/23 05:01:20;;;;;;;;;13.00;12.00;28.00;54.90;;;;;;111318;1244;44852;-62
2023/06/23 05:03:48;;;;;;;;;12.00;11.00;28.00;54.80;;;;;;111264;1243;50271;-61
2023/06/23 05:06:19;;;;;;;;;14.00;12.00;28.00;54.80;;;;;;111241;1244;49370;-61
2023/06/23 05:08:48;;;;;;;;;12.33;11.67;28.00;55.10;;;;;;111167;1244;53779;-61
2023/06/23 05:11:17;;;;;;;;;14.25;11.50;28.00;54.90;;;;;;111430;1239;44605;-62
2023/06/23 05:13:45;;;;;;;;;14.33;12.33;28.00;55.10;;;;;;111202;1243;49607;-63
2023/06/23 05:16:13;;;;;;;;;16.00;14.00;27.90;54.90;;;;;;111255;1238;48952;-62
2023/06/23 05:18:42;;;;;;;;;12.00;11.00;28.00;55.00;;;;;;111213;1244;53969;-62
2023/06/23 05:21:09;;;;;;;;;16.00;14.25;28.00;55.00;;;;;;111228;1243;44944;-62
2023/06/23 05:23:40;;;;;;;;;12.00;9.75;28.00;55.00;;;;;;111188;1244;49884;-63
2023/06/23 05:26:09;;;;;;;;;13.75;12.00;28.00;55.00;;;;;;111322;1243;49628;-63
2023/06/23 05:28:37;;;;;;;;;13.00;12.00;28.00;55.00;;;;;;111290;1244;53370;-62
2023/06/23 05:31:05;;;;;;;;;15.00;14.00;28.00;55.00;;;;;;111282;1238;44078;-62
2023/06/23 05:33:36;;;;;;;;;14.25;13.00;28.00;55.20;;;;;;111213;1241;49196;-62
2023/06/23 05:36:05;;;;;;;;;13.33;12.33;28.00;55.00;;;;;;111330;1243;49841;-62
2023/06/23 05:38:34;;;;;;;;;11.00;10.00;28.00;55.10;;;;;;111222;1240;54026;-62
2023/06/23 05:41:02;;;;;;;;;13.00;12.00;28.00;55.10;;;;;;111283;1243;45842;-63
2023/06/23 05:43:29;;;;;;;;;12.75;12.00;28.00;55.10;;;;;;111206;1243;48815;-62
2023/06/23 05:45:57;;;;;;;;;14.75;13.00;27.90;55.20;;;;;;111209;1244;49371;-61
2023/06/23 05:48:44;;;;;;;;;14.00;12.50;27.90;55.00;;;;;;111304;1244;54106;-62
2023/06/23 05:51:15;;;;;;;;;13.67;12.33;27.90;55.60;;;;;;111269;1243;44660;-62
2023/06/23 05:53:43;;;;;;;;;12.00;11.00;27.90;55.10;;;;;;111268;1243;48844;-62
2023/06/23 05:56:22;;;;;;;;;11.33;11.00;28.00;55.10;;;;;;111364;1241;50469;-62
2023/06/23 05:58:56;;;;;;;;;12.00;11.00;27.90;55.10;;;;;;111225;1243;53426;-62
2023/06/23 06:01:25;;;;;;;;;13.00;13.00;28.00;55.20;;;;;;111205;1244;44255;-62
2023/06/23 06:04:23;;;;;;;;;11.33;10.67;28.00;55.30;;;;;;111225;1243;48782;-62
2023/06/23 06:06:52;;;;;;;;;11.33;10.67;28.00;55.30;;;;;;111093;1244;50949;-62
2023/06/23 06:09:20;;;;;;;;;14.00;12.00;28.00;55.20;;;;;;111102;1246;53935;-61
2023/06/23 06:11:48;;;;;;;;;13.25;12.25;28.00;55.10;;;;;;111244;1244;44637;-62
2023/06/23 06:14:16;;;;;;;;;10.75;9.75;28.00;55.40;;;;;;111295;1240;48748;-62
2023/06/23 06:16:43;;;;;;;;;13.33;12.00;28.00;55.40;;;;;;111280;1244;49560;-62
2023/06/23 06:19:12;;;;;;;;;11.67;10.00;28.00;55.20;;;;;;111269;1241;54354;-63
2023/06/23 06:21:39;;;;;;;;;11.00;10.00;28.00;55.40;;;;;;111327;1240;44450;-62
2023/06/23 06:24:09;;;;;;;;;12.00;11.00;28.00;55.20;;;;;;111252;1244;49157;-62
2023/06/23 06:26:36;;;;;;;;;14.00;13.00;28.00;55.40;;;;;;111330;1244;49777;-61
2023/06/23 06:29:05;;;;;;;;;14.75;13.25;28.00;55.20;;;;;;111250;1238;54100;-62
2023/06/23 06:31:34;;;;;;;;;13.25;12.25;28.00;55.20;;;;;;111313;1243;45380;-62
2023/06/23 06:34:02;;;;;;;;;13.00;11.00;28.00;55.20;;;;;;111250;1240;49138;-62
2023/06/23 06:36:31;;;;;;;;;11.25;10.25;28.00;55.40;;;;;;111369;1244;49181;-62
2023/06/23 06:38:59;;;;;;;;;12.50;11.75;28.00;55.20;;;;;;111281;1244;54915;-62
2023/06/23 06:41:28;;;;;;;;;11.25;10.75;28.10;55.30;;;;;;111201;1244;45019;-62
2023/06/23 06:43:56;;;;;;;;;13.00;11.00;28.10;55.20;;;;;;111221;1244;49391;-62
2023/06/23 06:46:24;;;;;;;;;11.33;11.00;28.00;55.20;;;;;;111228;1240;49193;-62
2023/06/23 06:48:52;;;;;;;;;12.25;11.50;28.10;55.30;;;;;;111262;1238;53812;-62
2023/06/23 06:51:19;;;;;;;;;10.00;9.50;28.10;55.30;;;;;;111222;1243;44284;-61
2023/06/23 06:53:47;;;;;;;;;12.67;10.67;28.10;55.30;;;;;;111260;1239;49538;-62
2023/06/23 06:56:14;;;;;;;;;12.00;10.50;28.10;55.30;;;;;;111154;1241;49785;-61
2023/06/23 06:58:42;;;;;;;;;11.00;10.00;28.10;55.40;;;;;;111255;1243;54278;-61
2023/06/23 07:01:09;;;;;;;;;12.00;11.50;28.10;55.40;;;;;;111312;1240;45155;-62
2023/06/23 07:03:39;;;;;;;;;10.00;9.00;28.20;55.40;;;;;;111281;1245;49935;-61
2023/06/23 07:06:06;;;;;;;;;13.75;12.25;28.20;55.50;;;;;;111229;1244;49916;-62
2023/06/23 07:08:33;;;;;;;;;11.25;10.25;28.10;55.60;;;;;;111319;1244;53352;-62
2023/06/23 07:11:00;;;;;;;;;12.00;11.25;28.20;55.60;;;;;;111290;1240;45477;-61
2023/06/23 07:13:27;;;;;;;;;12.25;11.50;28.20;55.40;;;;;;111288;1244;49502;-61
2023/06/23 07:15:54;;;;;;;;;13.00;10.50;28.20;55.70;;;;;;111315;1243;49083;-62
2023/06/23 07:18:23;;;;;;;;;10.25;9.75;28.20;55.50;;;;;;111304;1240;53676;-61
2023/06/23 07:20:50;;;;;;;;;12.25;11.00;28.20;55.50;;;;;;111249;1243;44872;-61
2023/06/23 07:23:17;;;;;;;;;12.00;11.00;28.30;55.50;;;;;;111260;1244;49823;-62
2023/06/23 07:25:44;;;;;;;;;12.50;11.50;28.30;55.60;;;;;;111278;1238;49273;-62
2023/06/23 07:28:11;;;;;;;;;11.75;10.75;28.30;55.60;;;;;;111243;1244;53432;-61
2023/06/23 07:30:39;;;;;;;;;10.67;9.67;28.30;55.70;;;;;;111252;1243;45015;-62
2023/06/23 07:33:06;;;;;;;;;10.25;9.75;28.30;55.50;;;;;;111266;1244;49614;-62
2023/06/23 07:35:33;;;;;;;;;12.25;10.75;28.30;55.60;;;;;;111291;1239;49787;-63
2023/06/23 07:38:01;;;;;;;;;13.00;11.00;28.40;55.90;;;;;;111239;1244;53989;-62
2023/06/23 07:40:28;;;;;;;;;12.33;12.00;28.40;55.60;;;;;;111232;1244;44600;-61
2023/06/23 07:42:55;;;;;;;;;13.75;12.25;28.40;55.60;;;;;;111274;1239;49156;-62
2023/06/23 07:45:22;;;;;;;;;11.67;10.00;28.40;55.60;;;;;;111275;1238;48997;-61
2023/06/23 07:47:49;;;;;;;;;11.25;10.75;28.40;55.90;;;;;;111206;1243;54754;-62
2023/06/23 07:50:16;;;;;;;;;11.00;10.00;28.40;55.60;;;;;;111287;1243;45081;-62
2023/06/23 07:52:45;;;;;;;;;11.25;10.25;28.50;55.70;;;;;;111260;1243;49474;-60
2023/06/23 07:55:19;;;;;;;;;11.25;10.75;28.50;55.70;;;;;;111270;1243;49746;-62
2023/06/23 07:57:47;;;;;;;;;10.67;9.00;28.50;55.70;;;;;;111260;1243;54654;-62
2023/06/23 08:00:14;;;;;;;;;11.00;10.00;28.60;55.70;;;;;;111265;1241;45820;-61
2023/06/23 08:02:42;;;;;;;;;10.00;9.00;28.60;55.70;;;;;;111239;1240;49986;-61
2023/06/23 08:05:09;;;;;;;;;11.75;10.00;28.60;55.70;;;;;;111297;1240;49572;-61
2023/06/23 08:07:36;;;;;;;;;9.50;8.00;28.70;55.70;;;;;;111236;1243;53336;-62
2023/06/23 08:10:04;;;;;;;;;13.00;11.50;28.70;55.70;;;;;;111255;1238;44726;-62
2023/06/23 08:12:32;;;;;;;;;11.00;10.00;28.70;55.70;;;;;;111245;1243;48897;-62
2023/06/23 08:14:59;;;;;;;;;11.75;10.75;28.70;55.70;;;;;;111233;1241;49022;-62
2023/06/23 08:17:26;;;;;;;;;10.25;9.75;28.70;55.70;;;;;;111264;1238;54558;-62
2023/06/23 08:19:54;;;;;;;;;13.00;11.00;28.80;55.70;;;;;;111211;1243;44940;-62
2023/06/23 08:22:21;;;;;;;;;12.00;11.00;28.80;55.70;;;;;;111253;1243;49885;-62
2023/06/23 08:24:47;;;;;;;;;11.25;10.25;28.80;55.60;;;;;;111285;1240;50665;-62
2023/06/23 08:27:14;;;;;;;;;10.00;9.00;28.80;55.60;;;;;;111214;1243;54961;-61
2023/06/23 08:29:41;;;;;;;;;10.00;10.00;28.90;55.70;;;;;;111219;1244;44886;-61
2023/06/23 08:32:08;;;;;;;;;10.75;9.00;28.90;55.70;;;;;;111280;1244;50205;-62
2023/06/23 08:34:37;;;;;;;;;12.25;11.50;28.90;55.60;;;;;;111324;1243;48955;-63
2023/06/23 08:37:05;;;;;;;;;10.25;9.00;29.00;55.60;;;;;;111359;1239;53591;-62
2023/06/23 08:39:31;;;;;;;;;9.00;7.33;29.00;55.60;;;;;;111289;1243;45135;-62
2023/06/23 08:41:59;;;;;;;;;9.00;8.67;29.00;55.60;;;;;;111344;1239;50478;-62
2023/06/23 08:44:30;;;;;;;;;11.00;9.33;29.10;55.60;;;;;;111291;1243;49964;-62
2023/06/23 08:46:58;;;;;;;;;14.00;12.00;29.10;55.50;;;;;;111253;1243;54802;-62
2023/06/23 08:49:27;;;;;;;;;10.00;9.50;29.10;55.50;;;;;;111335;1240;45077;-61
2023/06/23 08:51:54;;;;;;;;;10.00;9.00;29.20;55.50;;;;;;111223;1240;50693;-62
2023/06/23 08:54:21;;;;;;;;;10.25;9.00;29.20;55.50;;;;;;111230;1241;49813;-61
2023/06/23 08:56:49;;;;;;;;;10.00;9.00;29.20;55.50;;;;;;111286;1244;53162;-62
2023/06/23 08:59:16;;;;;;;;;10.00;9.00;29.30;55.70;;;;;;111352;1238;45061;-61
2023/06/23 09:01:43;;;;;;;;;12.75;11.00;29.30;55.70;;;;;;111243;1243;49122;-63
2023/06/23 09:04:10;;;;;;;;;9.67;8.67;29.30;55.40;;;;;;111222;1241;49418;-61
2023/06/23 09:06:36;;;;;;;;;12.00;11.00;29.30;55.50;;;;;;111240;1238;53947;-60
2023/06/23 09:09:04;;;;;;;;;10.00;9.25;29.40;56.00;;;;;;111224;1238;45307;-62
2023/06/23 09:11:31;;;;;;;;;10.00;9.25;29.40;55.40;;;;;;111253;1244;50196;-61
2023/06/23 09:13:59;;;;;;;;;9.25;9.25;29.40;55.40;;;;;;111260;1241;49690;-62
2023/06/23 09:16:27;;;;;;;;;12.25;11.50;29.40;55.40;;;;;;111632;1243;53790;-61
2023/06/23 09:18:55;;;;;;;;;10.00;9.00;29.50;55.60;;;;;;111279;1240;44611;-63
2023/06/23 09:21:22;;;;;;;;;9.33;8.33;29.50;55.30;;;;;;111202;1240;49787;-62
2023/06/23 09:23:57;;;;;;;;;9.00;8.50;29.50;55.30;;;;;;111255;1240;49407;-65
2023/06/23 09:26:25;;;;;;;;;13.00;11.00;29.60;55.50;;;;;;111305;1238;54592;-62
2023/06/23 09:28:52;;;;;;;;;9.00;8.50;29.60;55.30;;;;;;111212;1243;45280;-63
2023/06/23 09:31:19;;;;;;;;;8.00;8.00;29.60;55.20;;;;;;111190;1244;48630;-62
2023/06/23 09:33:48;;;;;;;;;10.75;10.00;29.60;55.40;;;;;;111168;1242;48884;-61
2023/06/23 09:36:15;;;;;;;;;11.25;10.00;29.70;55.30;;;;;;111316;1240;54307;-62
2023/06/23 09:38:43;;;;;;;;;10.50;9.75;29.70;55.50;;;;;;111226;1238;45933;-62
2023/06/23 09:41:11;;;;;;;;;10.67;9.00;29.70;55.20;;;;;;111273;1242;49863;-62
2023/06/23 09:43:52;;;;;;;;;12.25;11.00;29.80;55.70;;;;;;111240;1238;49930;-63
2023/06/23 09:46:22;;;;;;;;;10.00;9.00;29.80;55.70;;;;;;111275;1243;53830;-62
2023/06/23 09:48:50;;;;;;;;;10.25;9.00;29.80;55.20;;;;;;111246;1239;45955;-62
2023/06/23 09:51:20;;;;;;;;;9.00;8.00;29.90;55.20;;;;;;111299;1240;49776;-62
2023/06/23 09:53:48;;;;;;;;;9.00;8.00;29.90;55.30;;;;;;111210;1240;49352;-62
2023/06/23 09:56:17;;;;;;;;;10.00;9.00;29.90;55.10;;;;;;111233;1243;53751;-62
2023/06/23 09:58:48;;;;;;;;;9.33;8.33;30.00;55.10;;;;;;111301;1238;45023;-63
2023/06/23 10:01:17;;;;;;;;;10.00;9.00;30.00;55.10;;;;;;111345;1243;49379;-62
2023/06/23 10:03:52;;;;;;;;;9.67;8.00;30.00;55.20;;;;;;111228;1243;49094;-62
2023/06/23 10:06:37;;;;;;;;;8.25;8.00;30.10;55.10;;;;;;111313;1243;54922;-62
2023/06/23 10:09:07;;;;;;;;;9.00;8.50;30.10;55.10;;;;;;111316;1240;44652;-62
2023/06/23 10:11:39;;;;;;;;;9.67;9.00;30.10;55.00;;;;;;111225;1248;48630;-63
2023/06/23 10:14:10;;;;;;;;;10.67;9.67;30.20;55.00;;;;;;111235;1241;49086;-62
2023/06/23 10:16:41;;;;;;;;;10.00;9.50;30.20;55.00;;;;;;111275;1239;53840;-61
2023/06/23 10:19:08;;;;;;;;;9.25;9.25;30.20;54.90;;;;;;111227;1243;44776;-62
2023/06/23 10:21:35;;;;;;;;;10.25;9.25;30.20;54.90;;;;;;111246;1240;48777;-62
2023/06/23 10:24:14;;;;;;;;;11.25;10.25;30.20;54.90;;;;;;111219;1239;48641;-62
2023/06/23 10:26:42;;;;;;;;;10.00;9.00;30.30;54.90;;;;;;111252;1240;53784;-61
2023/06/23 10:29:13;;;;;;;;;9.25;9.00;30.30;54.90;;;;;;111278;1244;44993;-61
2023/06/23 10:31:41;;;;;;;;;8.33;8.00;30.30;54.90;;;;;;111255;1243;49431;-61
2023/06/23 10:34:13;;;;;;;;;10.00;9.50;30.40;54.90;;;;;;111281;1243;49104;-61
2023/06/23 10:36:41;;;;;;;;;10.67;9.33;30.40;54.90;;;;;;111200;1238;53628;-61
2023/06/23 10:39:12;;;;;;;;;9.25;8.25;30.40;54.90;;;;;;111223;1244;44489;-62
2023/06/23 10:41:40;;;;;;;;;9.00;8.00;30.40;54.80;;;;;;111222;1243;49103;-63
2023/06/23 10:44:08;;;;;;;;;10.00;9.33;30.40;55.00;;;;;;111156;1245;50383;-62
2023/06/23 10:46:35;;;;;;;;;10.00;8.75;30.50;54.90;;;;;;111280;1240;55018;-62
2023/06/23 10:49:07;;;;;;;;;9.50;8.25;30.50;54.90;;;;;;111188;1243;45208;-62
2023/06/23 10:51:36;;;;;;;;;10.33;10.00;30.50;54.80;;;;;;111211;1243;49025;-62
2023/06/23 10:54:07;;;;;;;;;9.50;9.25;30.50;54.80;;;;;;111324;1247;49067;-61
2023/06/23 10:56:39;;;;;;;;;10.00;9.00;30.50;54.80;;;;;;111509;1243;54151;-62
2023/06/23 10:59:24;;;;;;;;;9.50;8.50;30.60;55.00;;;;;;111245;1243;46268;-63
2023/06/23 11:02:00;;;;;;;;;9.00;8.25;30.60;54.80;;;;;;111273;1244;49420;-61
2023/06/23 11:04:28;;;;;;;;;8.00;7.00;30.60;54.70;;;;;;111262;1243;48700;-62
2023/06/23 11:07:04;;;;;;;;;8.33;8.00;30.60;54.70;;;;;;111312;1238;53864;-61
2023/06/23 11:09:54;;;;;;;;;10.00;9.75;30.70;55.00;;;;;;111239;1241;44335;-61
2023/06/23 11:12:27;;;;;;;;;8.50;8.00;30.70;54.70;;;;;;111245;1243;49115;-62
2023/06/23 11:15:20;;;;;;;;;10.00;8.00;30.70;54.70;;;;;;111267;1241;49435;-62
2023/06/23 11:18:01;;;;;;;;;9.00;8.33;30.70;54.70;;;;;;111278;1243;53441;-61
2023/06/23 11:20:30;;;;;;;;;11.00;10.00;30.80;54.70;;;;;;111243;1240;44775;-61
2023/06/23 11:23:03;;;;;;;;;9.25;8.25;30.80;54.70;;;;;;111350;1239;49248;-61
2023/06/23 11:25:51;;;;;;;;;10.00;9.25;30.80;54.90;;;;;;111353;1242;48876;-62
2023/06/23 11:28:40;;;;;;;;;10.00;9.00;30.80;54.60;;;;;;111207;1240;54735;-63
2023/06/23 11:31:14;;;;;;;;;10.00;8.00;30.80;54.60;;;;;;111271;1243;44427;-60
2023/06/23 11:33:58;;;;;;;;;10.00;9.25;30.90;54.70;;;;;;111259;1243;50521;-62
2023/06/23 11:36:27;;;;;;;;;11.25;10.25;30.90;54.60;;;;;;111582;1243;50030;-63
2023/06/23 11:38:55;;;;;;;;;9.50;9.00;30.90;54.60;;;;;;111240;1243;54324;-62
2023/06/23 11:41:30;;;;;;;;;10.00;9.00;30.90;54.70;;;;;;111346;1240;44424;-62
2023/06/23 11:43:58;;;;;;;;;9.00;8.00;31.00;54.60;;;;;;111249;1240;49770;-62
2023/06/23 11:46:26;;;;;;;;;9.00;8.75;31.00;54.60;;;;;;111589;1244;49426;-61
2023/06/23 11:48:53;;;;;;;;;10.00;10.00;31.00;54.60;;;;;;111215;1244;136748;-62
2023/06/23 11:51:21;;;;;;;;;11.00;10.00;31.00;54.60;;;;;;111084;1246;44825;-61
2023/06/23 11:53:51;;;;;;;;;10.75;9.25;31.00;54.50;;;;;;111240;1240;49095;-62
2023/06/23 11:56:19;;;;;;;;;12.00;11.00;31.00;54.60;;;;;;111269;1240;49351;-61
2023/06/23 11:58:51;;;;;;;;;9.25;8.00;31.00;54.60;;;;;;111383;1241;53882;-62
2023/06/23 12:01:19;;;;;;;;;10.00;9.00;31.00;54.50;;;;;;111250;1240;44520;-62
2023/06/23 12:03:51;;;;;;;;;8.33;8.00;31.00;54.50;;;;;;111197;1240;50790;-61
2023/06/23 12:06:19;;;;;;;;;8.33;7.33;31.00;54.50;;;;;;111263;1241;49778;-62
2023/06/23 12:08:50;;;;;;;;;11.00;10.00;31.00;54.10;;;;;;111334;1240;54026;-62
2023/06/23 12:11:18;;;;;;;;;9.00;8.00;31.00;54.50;;;;;;111318;1240;45288;-62
2023/06/23 12:13:48;;;;;;;;;8.00;8.00;31.00;54.50;;;;;;111265;1244;49390;-61
2023/06/23 12:16:15;;;;;;;;;8.00;6.67;31.00;54.50;;;;;;111258;1240;49631;-62
2023/06/23 12:18:49;;;;;;;;;10.00;9.33;31.00;54.70;;;;;;111235;1243;53434;-62
2023/06/23 12:21:17;;;;;;;;;10.50;8.75;31.00;54.50;;;;;;111306;1240;44890;-62
2023/06/23 12:23:44;;;;;;;;;11.00;10.25;31.10;54.50;;;;;;111302;1238;49067;-62
2023/06/23 12:26:14;;;;;;;;;9.00;8.00;31.10;54.50;;;;;;111277;1238;49223;-62
2023/06/23 12:28:41;;;;;;;;;9.00;8.00;31.10;54.70;;;;;;111266;1243;53867;-62
2023/06/23 12:31:08;;;;;;;;;9.67;8.67;31.10;54.50;;;;;;111280;1238;45007;-62
2023/06/23 12:33:40;;;;;;;;;10.00;8.25;31.10;54.50;;;;;;111372;1243;48612;-62
2023/06/23 12:36:09;;;;;;;;;8.75;8.25;31.10;54.70;;;;;;111205;1240;49458;-62